Time;durP1;ratioP1;P1;durP2;ratioP2;P2;SDS_P1;SDS_P2;PMS_P1;PMS_P2;Temp;Humidity;BMP_temperature;BMP_pressure;BME280_temperature;BME280_humidity;BME280_pressure;Samples;Min_cycle;Max_cycle;Signal;HPM_P1;HPM_P2
2024/01/03 00:00:33;;;;;;;3.92;1.00;;;;;;;6.82;100.00;92514.56;5011248;28;20107;-75
2024/01/03 00:03:00;;;;;;;2.90;1.10;;;;;;;6.77;100.00;92526.75;5010550;28;20403;-75
2024/01/03 00:05:38;;;;;;;3.10;1.02;;;;;;;6.66;100.00;92516.09;5011365;28;20614;-75
2024/01/03 00:08:06;;;;;;;2.13;0.90;;;;;;;6.66;100.00;92523.50;5010238;28;20080;-75
2024/01/03 00:10:49;;;;;;;2.92;1.20;;;;;;;6.60;100.00;92501.44;5010761;28;20050;-75
2024/01/03 00:13:32;;;;;;;2.80;1.13;;;;;;;6.60;100.00;92502.22;5009503;28;20868;-75
2024/01/03 00:15:59;;;;;;;3.20;1.42;;;;;;;6.60;100.00;92509.63;5009181;28;20052;-75
2024/01/03 00:18:37;;;;;;;3.88;1.00;;;;;;;6.61;100.00;92502.97;5010099;28;20060;-75
2024/01/03 00:21:10;;;;;;;7.83;3.40;;;;;;;6.73;100.00;92526.06;5010573;28;20045;-75
2024/01/03 00:23:39;;;;;;;3.25;1.17;;;;;;;6.56;100.00;92525.25;5010645;28;20465;-74
2024/01/03 00:26:10;;;;;;;2.83;1.00;;;;;;;6.45;100.00;92509.16;5008987;28;20408;-74
2024/01/03 00:28:37;;;;;;;2.00;0.80;;;;;;;6.40;100.00;92528.75;5010754;28;20046;-74
2024/01/03 00:31:04;;;;;;;2.95;1.00;;;;;;;6.45;100.00;92522.78;5009628;28;20054;-74
2024/01/03 00:33:38;;;;;;;2.10;1.00;;;;;;;6.37;100.00;92527.63;5010720;28;20356;-74
2024/01/03 00:36:06;;;;;;;1.67;0.80;;;;;;;6.33;100.00;92509.81;5009958;28;20076;-74
2024/01/03 00:38:37;;;;;;;3.13;1.23;;;;;;;6.39;100.00;92522.53;5010367;28;20104;-74
2024/01/03 00:41:04;;;;;;;2.17;0.90;;;;;;;6.33;100.00;92523.44;5009464;28;20502;-74
2024/01/03 00:43:31;;;;;;;1.95;1.08;;;;;;;6.40;100.00;92512.41;4993315;28;20080;-73
2024/01/03 00:45:58;;;;;;;1.70;0.80;;;;;;;6.46;100.00;92504.47;5009567;28;20060;-73
2024/01/03 00:48:25;;;;;;;3.83;1.00;;;;;;;6.51;100.00;92510.19;5010215;28;20076;-74
2024/01/03 00:50:51;;;;;;;2.25;0.80;;;;;;;6.52;100.00;92527.31;5009893;28;20398;-73
2024/01/03 00:53:20;;;;;;;2.67;0.90;;;;;;;6.49;100.00;92520.75;5010085;28;20056;-73
2024/01/03 00:55:47;;;;;;;2.40;1.02;;;;;;;6.53;100.00;92518.72;5010322;28;20112;-73
2024/01/03 00:58:14;;;;;;;2.60;1.10;;;;;;;6.58;100.00;92536.53;5009216;28;20789;-74
2024/01/03 01:00:41;;;;;;;2.67;1.08;;;;;;;6.55;100.00;92538.13;5010242;28;20053;-74
2024/01/03 01:03:08;;;;;;;2.75;1.10;;;;;;;6.56;100.00;92557.97;5009181;28;20388;-73
2024/01/03 01:05:35;;;;;;;2.70;1.30;;;;;;;6.60;100.00;92537.66;5009977;28;20038;-73
2024/01/03 01:08:02;;;;;;;3.30;1.23;;;;;;;6.58;100.00;92540.03;5009005;28;20046;-74
2024/01/03 01:10:29;;;;;;;3.67;1.30;;;;;;;6.56;100.00;92536.97;4976290;28;20064;-73
2024/01/03 01:12:56;;;;;;;2.30;1.00;;;;;;;6.64;100.00;92540.28;5009159;28;20376;-73
2024/01/03 01:15:23;;;;;;;1.60;0.77;;;;;;;6.67;100.00;92538.66;5010080;28;20040;-73
2024/01/03 01:17:49;;;;;;;3.22;1.20;;;;;;;6.67;100.00;92538.66;5008426;28;20379;-72
2024/01/03 01:20:16;;;;;;;2.65;1.13;;;;;;;6.61;100.00;92535.69;5009669;28;20104;-73
2024/01/03 01:22:43;;;;;;;1.80;0.70;;;;;;;6.61;100.00;92527.50;5009529;28;20046;-73
2024/01/03 01:25:10;;;;;;;2.20;0.80;;;;;;;6.53;100.00;92545.22;5009070;28;20049;-73
2024/01/03 01:27:37;;;;;;;1.90;0.90;;;;;;;6.53;100.00;92547.94;5009838;28;20136;-73
2024/01/03 01:30:04;;;;;;;1.70;0.80;;;;;;;6.54;100.00;92549.44;5008531;28;20410;-73
2024/01/03 01:32:31;;;;;;;4.32;1.50;;;;;;;6.50;100.00;92552.28;5009320;28;20038;-73
2024/01/03 01:34:58;;;;;;;2.13;1.13;;;;;;;6.46;100.00;92545.34;5008822;28;20398;-73
2024/01/03 01:37:24;;;;;;;3.38;1.50;;;;;;;6.39;100.00;92544.31;5009211;28;20037;-73
2024/01/03 01:39:51;;;;;;;2.28;1.00;;;;;;;6.36;100.00;92561.53;5009029;28;20041;-73
2024/01/03 01:42:18;;;;;;;1.77;0.70;;;;;;;6.32;100.00;92569.00;4991674;28;20050;-73
2024/01/03 01:44:45;;;;;;;2.47;1.08;;;;;;;6.36;100.00;92575.16;5009310;28;20042;-74
2024/01/03 01:47:12;;;;;;;1.87;0.87;;;;;;;6.36;100.00;92564.25;5008580;28;20398;-74
2024/01/03 01:49:40;;;;;;;1.65;0.75;;;;;;;6.34;100.00;92563.16;5009352;28;20099;-74
2024/01/03 01:52:09;;;;;;;2.85;1.02;;;;;;;6.34;100.00;92561.19;5008397;28;20045;-74
2024/01/03 01:54:37;;;;;;;1.90;0.75;;;;;;;6.32;100.00;92555.38;5009270;28;20046;-73
2024/01/03 01:57:05;;;;;;;1.80;0.98;;;;;;;6.35;100.00;92546.34;5008549;28;20103;-73
2024/01/03 01:59:32;;;;;;;1.85;0.70;;;;;;;6.33;100.00;92567.03;5009384;28;20038;-73
2024/01/03 02:01:59;;;;;;;2.45;1.10;;;;;;;6.33;100.00;92556.16;5008647;28;20398;-73
2024/01/03 02:04:27;;;;;;;2.00;0.75;;;;;;;6.31;100.00;92562.00;5009169;28;20052;-74
2024/01/03 02:06:54;;;;;;;1.80;0.80;;;;;;;6.30;100.00;92565.94;5008770;28;20046;-73
2024/01/03 02:09:21;;;;;;;2.85;0.80;;;;;;;6.27;100.00;92561.31;5008518;28;20426;-73
2024/01/03 02:11:48;;;;;;;1.70;0.80;;;;;;;6.29;100.00;92555.47;5008015;28;20399;-74
2024/01/03 02:14:15;;;;;;;1.85;0.82;;;;;;;6.19;100.00;92559.94;5007921;28;20693;-74
2024/01/03 02:16:42;;;;;;;1.63;0.90;;;;;;;6.16;100.00;92555.34;5009011;28;20398;-74
2024/01/03 02:19:08;;;;;;;1.98;0.90;;;;;;;6.26;100.00;92553.56;5008427;28;20111;-73
2024/01/03 02:21:35;;;;;;;1.95;0.80;;;;;;;6.22;100.00;92544.69;5009148;28;20066;-73
2024/01/03 02:24:02;;;;;;;2.90;0.73;;;;;;;6.20;100.00;92540.44;5008344;28;20050;-73
2024/01/03 02:26:29;;;;;;;1.75;1.00;;;;;;;6.16;100.00;92541.72;5008986;28;20054;-73
2024/01/03 02:28:56;;;;;;;3.10;1.00;;;;;;;6.11;100.00;92537.50;5008667;28;20046;-73
2024/01/03 02:31:23;;;;;;;2.78;1.20;;;;;;;6.04;100.00;92534.16;5008709;28;20041;-73
2024/01/03 02:33:50;;;;;;;3.95;1.35;;;;;;;5.99;100.00;92549.81;5008587;28;20388;-73
2024/01/03 02:36:17;;;;;;;2.10;0.90;;;;;;;6.08;100.00;92551.22;5008869;28;20052;-74
2024/01/03 02:38:48;;;;;;;2.20;0.90;;;;;;;6.22;100.00;92552.88;5007638;28;20050;-73
2024/01/03 02:41:15;;;;;;;2.05;0.98;;;;;;;6.32;100.00;92538.28;5007909;28;20449;-73
2024/01/03 02:43:42;;;;;;;2.88;1.15;;;;;;;6.29;100.00;92544.56;5009061;28;20062;-74
2024/01/03 02:46:09;;;;;;;2.50;1.30;;;;;;;6.30;100.00;92543.34;5008056;28;20387;-74
2024/01/03 02:48:42;;;;;;;1.70;0.97;;;;;;;6.29;100.00;92537.16;5009313;28;20073;-73
2024/01/03 02:51:20;;;;;;;2.38;0.90;;;;;;;6.33;100.00;92542.53;5011960;28;20056;-74
2024/01/03 02:53:47;;;;;;;2.58;1.00;;;;;;;6.36;100.00;92541.69;5012827;28;20046;-74
2024/01/03 02:56:15;;;;;;;2.70;1.10;;;;;;;6.43;100.00;92546.22;5011883;28;20041;-74
2024/01/03 02:58:42;;;;;;;2.10;0.80;;;;;;;6.56;100.00;92552.53;5012688;28;20103;-74
2024/01/03 03:01:08;;;;;;;2.40;1.00;;;;;;;6.71;100.00;92556.47;5011995;28;20053;-74
2024/01/03 03:03:35;;;;;;;2.00;1.00;;;;;;;6.66;100.00;92564.38;5012549;28;20046;-74
2024/01/03 03:06:03;;;;;;;2.78;1.00;;;;;;;6.65;100.00;92555.44;5012229;28;20041;-74
2024/01/03 03:08:31;;;;;;;4.45;1.20;;;;;;;6.60;100.00;92564.16;5014475;28;20041;-74
2024/01/03 03:10:57;;;;;;;4.00;1.10;;;;;;;6.55;100.00;92557.22;5031530;28;20057;-74
2024/01/03 03:13:24;;;;;;;2.20;0.80;;;;;;;6.54;100.00;92549.44;5031734;28;20037;-74
2024/01/03 03:15:51;;;;;;;1.95;0.90;;;;;;;6.53;100.00;92554.16;5031325;28;20049;-74
2024/01/03 03:18:18;;;;;;;2.25;1.00;;;;;;;6.52;100.00;92551.84;5016119;28;20041;-74
2024/01/03 03:20:45;;;;;;;2.65;1.05;;;;;;;6.47;100.00;92544.94;5012158;28;20061;-74
2024/01/03 03:23:11;;;;;;;2.35;1.20;;;;;;;6.50;100.00;92537.88;5011619;28;20050;-74
2024/01/03 03:25:38;;;;;;;2.90;1.20;;;;;;;6.40;100.00;92512.41;5012030;28;20045;-74
2024/01/03 03:28:07;;;;;;;2.20;0.75;;;;;;;6.27;100.00;92509.56;4993931;28;20054;-74
2024/01/03 03:30:36;;;;;;;2.13;1.05;;;;;;;6.27;100.00;92514.25;5011999;28;20054;-74
2024/01/03 03:33:02;;;;;;;3.65;1.35;;;;;;;6.25;100.00;92511.94;5011296;28;20509;-74
2024/01/03 03:35:30;;;;;;;2.42;1.13;;;;;;;6.31;100.00;92506.75;5011725;28;20046;-74
2024/01/03 03:37:57;;;;;;;2.40;0.90;;;;;;;6.26;100.00;92515.41;5011266;28;20127;-74
2024/01/03 03:40:24;;;;;;;2.08;1.02;;;;;;;6.25;100.00;92519.34;5011471;28;20046;-74
2024/01/03 03:42:52;;;;;;;2.03;1.13;;;;;;;6.28;100.00;92527.44;5011367;28;20053;-73
2024/01/03 03:45:18;;;;;;;3.15;0.90;;;;;;;6.34;100.00;92527.72;5011360;28;20045;-73
2024/01/03 03:47:48;;;;;;;2.20;1.20;;;;;;;6.34;100.00;92533.19;5011819;28;20053;-73
2024/01/03 03:50:15;;;;;;;2.00;1.00;;;;;;;6.33;100.00;92534.34;5010648;28;20934;-73
2024/01/03 03:52:42;;;;;;;2.17;0.90;;;;;;;6.33;100.00;92523.44;5011496;28;20491;-73
2024/01/03 03:55:09;;;;;;;1.70;0.80;;;;;;;6.25;100.00;92544.63;5010642;28;20124;-74
2024/01/03 03:57:35;;;;;;;1.90;0.90;;;;;;;6.30;100.00;92538.69;5011478;28;20050;-74
2024/01/03 04:00:05;;;;;;;3.08;0.80;;;;;;;6.27;100.00;92544.22;5010565;28;20092;-75
2024/01/03 04:02:32;;;;;;;2.20;0.90;;;;;;;6.16;100.00;92542.47;5011364;28;20068;-74
2024/01/03 04:04:59;;;;;;;1.90;1.02;;;;;;;6.24;100.00;92534.94;5010625;28;20499;-74
2024/01/03 04:07:28;;;;;;;1.63;0.80;;;;;;;6.18;100.00;92542.81;5010936;28;20038;-74
2024/01/03 04:09:55;;;;;;;1.80;0.90;;;;;;;6.06;100.00;92531.81;4992897;28;20538;-74
2024/01/03 04:12:21;;;;;;;3.13;1.35;;;;;;;6.11;100.00;92534.78;5010786;28;20150;-74
2024/01/03 04:14:48;;;;;;;1.47;0.70;;;;;;;6.08;100.00;92541.09;5011251;28;20041;-74
2024/01/03 04:17:16;;;;;;;2.08;0.77;;;;;;;6.02;100.00;92542.00;5009549;28;20858;-75
2024/01/03 04:19:42;;;;;;;2.00;0.90;;;;;;;6.06;100.00;92540.75;5010932;28;20120;-75
2024/01/03 04:22:09;;;;;;;2.20;1.00;;;;;;;6.00;100.00;92539.72;5010469;28;20099;-74
2024/01/03 04:24:36;;;;;;;3.00;1.65;;;;;;;6.04;100.00;92534.16;5011197;28;20529;-74
2024/01/03 04:27:03;;;;;;;2.53;0.80;;;;;;;5.99;100.00;92532.72;5009595;28;20421;-74
2024/01/03 04:29:29;;;;;;;1.70;0.63;;;;;;;5.99;100.00;92530.75;5010909;28;20050;-75
2024/01/03 04:31:56;;;;;;;1.77;0.95;;;;;;;5.95;100.00;92542.91;5010057;28;20058;-74
2024/01/03 04:34:23;;;;;;;2.28;0.90;;;;;;;6.02;100.00;92531.09;5010348;28;20065;-75
2024/01/03 04:36:49;;;;;;;1.60;0.80;;;;;;;6.03;100.00;92538.09;5009212;28;20056;-74
2024/01/03 04:39:17;;;;;;;1.57;0.80;;;;;;;6.00;100.00;92564.22;5010525;28;20103;-74
2024/01/03 04:41:44;;;;;;;1.52;0.70;;;;;;;5.98;100.00;92544.81;5009560;28;20067;-74
2024/01/03 04:44:10;;;;;;;2.10;0.98;;;;;;;5.88;100.00;92556.66;5009985;28;20045;-75
2024/01/03 04:46:37;;;;;;;1.65;0.80;;;;;;;5.93;100.00;92559.63;5009833;28;20417;-75
2024/01/03 04:49:04;;;;;;;2.10;1.00;;;;;;;5.91;100.00;92555.81;5009743;28;20049;-74
2024/01/03 04:51:31;;;;;;;1.80;0.97;;;;;;;5.90;100.00;92546.09;5010308;28;20111;-75
2024/01/03 04:53:57;;;;;;;1.60;0.70;;;;;;;5.93;100.00;92546.00;5009077;28;20402;-74
2024/01/03 04:56:26;;;;;;;1.45;0.63;;;;;;;5.94;100.00;92546.81;5010074;28;20048;-75
2024/01/03 04:58:52;;;;;;;1.50;0.70;;;;;;;5.96;100.00;92541.75;5009705;28;20053;-74
2024/01/03 05:01:19;;;;;;;1.75;1.10;;;;;;;6.07;100.00;92555.88;5009401;28;20041;-75
2024/01/03 05:03:46;;;;;;;2.10;0.90;;;;;;;6.15;100.00;92549.09;5010307;28;20089;-74
2024/01/03 05:06:13;;;;;;;2.47;0.90;;;;;;;6.11;100.00;92551.13;5009485;28;20491;-74
2024/01/03 05:08:40;;;;;;;2.75;0.90;;;;;;;6.15;100.00;92561.97;5009770;28;20119;-75
2024/01/03 05:11:06;;;;;;;2.00;1.00;;;;;;;6.17;100.00;92559.59;5009148;28;20080;-74
2024/01/03 05:13:33;;;;;;;1.85;0.90;;;;;;;6.24;100.00;92570.34;5009561;28;20034;-74
2024/01/03 05:16:00;;;;;;;1.80;0.80;;;;;;;6.23;100.00;92563.34;5009391;28;20046;-74
2024/01/03 05:18:27;;;;;;;2.15;0.80;;;;;;;6.14;100.00;92558.47;5009553;28;20042;-74
2024/01/03 05:20:54;;;;;;;3.50;1.08;;;;;;;6.14;100.00;92560.44;5009257;28;20495;-74
2024/01/03 05:23:21;;;;;;;3.78;2.17;;;;;;;6.07;100.00;92564.06;5009750;28;20049;-75
2024/01/03 05:25:48;;;;;;;2.85;1.17;;;;;;;6.12;100.00;92582.66;5009961;28;20042;-75
2024/01/03 05:28:15;;;;;;;1.87;1.03;;;;;;;6.20;100.00;92581.31;5008519;28;20336;-75
2024/01/03 05:30:41;;;;;;;2.08;0.90;;;;;;;6.12;100.00;92584.59;5009812;28;20376;-74
2024/01/03 05:33:08;;;;;;;2.88;1.33;;;;;;;6.16;100.00;92575.16;5009340;28;20044;-74
2024/01/03 05:35:35;;;;;;;2.67;0.95;;;;;;;6.17;100.00;92565.78;5009386;28;20046;-74
2024/01/03 05:38:02;;;;;;;2.92;1.58;;;;;;;6.10;100.00;92578.81;5009185;28;20038;-74
2024/01/03 05:40:29;;;;;;;3.10;1.10;;;;;;;6.09;100.00;92572.56;5009376;28;20410;-74
2024/01/03 05:42:55;;;;;;;3.45;1.20;;;;;;;6.05;100.00;92574.59;5008801;28;20057;-75
2024/01/03 05:45:22;;;;;;;3.28;1.20;;;;;;;6.05;100.00;92571.13;5009281;28;20117;-74
2024/01/03 05:47:49;;;;;;;3.15;1.30;;;;;;;6.04;100.00;92583.19;5008914;28;20046;-70
2024/01/03 05:50:16;;;;;;;3.80;1.20;;;;;;;5.95;100.00;92587.22;4991873;28;20046;-74
2024/01/03 05:52:43;;;;;;;3.50;1.00;;;;;;;5.95;100.00;92579.06;5009357;28;20057;-74
2024/01/03 05:55:09;;;;;;;4.82;1.10;;;;;;;5.84;100.00;92578.50;5009036;28;20058;-74
2024/01/03 05:57:36;;;;;;;2.28;1.15;;;;;;;5.85;100.00;92571.09;4991590;28;20414;-74
2024/01/03 06:00:04;;;;;;;3.00;1.10;;;;;;;5.88;100.00;92579.19;5008971;28;20047;-74
2024/01/03 06:02:31;;;;;;;4.00;1.05;;;;;;;5.85;100.00;92585.47;5008574;28;20044;-74
2024/01/03 06:04:58;;;;;;;3.90;1.40;;;;;;;5.91;100.00;92583.78;5009057;28;20053;-74
2024/01/03 06:07:25;;;;;;;5.90;1.30;;;;;;;5.98;100.00;92585.66;5008902;28;20060;-74
2024/01/03 06:09:52;;;;;;;3.83;1.02;;;;;;;6.02;100.00;92604.63;5008196;28;20050;-75
2024/01/03 06:12:18;;;;;;;2.67;1.00;;;;;;;6.15;100.00;92622.66;5008646;28;20069;-74
2024/01/03 06:14:46;;;;;;;4.28;1.10;;;;;;;6.16;100.00;92623.44;5009122;28;20054;-74
2024/01/03 06:17:13;;;;;;;4.93;1.47;;;;;;;6.17;100.00;92617.56;5007269;28;20056;-74
2024/01/03 06:19:39;;;;;;;3.30;1.20;;;;;;;6.17;100.00;92592.28;5009173;28;20073;-74
2024/01/03 06:22:06;;;;;;;4.75;1.30;;;;;;;6.06;100.00;92599.91;5008601;28;20049;-75
2024/01/03 06:24:33;;;;;;;3.45;1.33;;;;;;;5.98;100.00;92613.66;5011194;28;20045;-74
2024/01/03 06:27:00;;;;;;;3.88;2.05;;;;;;;5.99;100.00;92620.63;5012743;28;20054;-74
2024/01/03 06:29:27;;;;;;;4.37;2.37;;;;;;;5.99;100.00;92622.56;5013027;28;20044;-74
2024/01/03 06:31:53;;;;;;;3.78;1.77;;;;;;;6.04;100.00;92618.59;5012781;28;20045;-74
2024/01/03 06:34:20;;;;;;;5.63;1.40;;;;;;;6.01;100.00;92628.38;5012759;28;20046;-74
2024/01/03 06:36:47;;;;;;;2.78;0.98;;;;;;;6.07;100.00;92615.03;5012964;28;20042;-74
2024/01/03 06:39:14;;;;;;;2.17;0.90;;;;;;;6.08;100.00;92622.03;5012367;28;20151;-74
2024/01/03 06:41:41;;;;;;;3.27;0.93;;;;;;;6.03;100.00;92626.00;5012753;28;20068;-74
2024/01/03 06:44:08;;;;;;;2.13;1.10;;;;;;;6.09;100.00;92624.31;5012321;28;20056;-74
2024/01/03 06:46:35;;;;;;;3.20;1.10;;;;;;;6.11;100.00;92634.81;5012402;28;20076;-75
2024/01/03 06:49:02;;;;;;;2.50;1.00;;;;;;;6.10;100.00;92634.03;5012315;28;20046;-73
2024/01/03 06:51:29;;;;;;;1.85;0.85;;;;;;;6.11;100.00;92623.91;5012645;28;20048;-73
2024/01/03 06:53:56;;;;;;;2.90;1.03;;;;;;;6.08;100.00;92639.16;5011848;28;20046;-73
2024/01/03 06:56:24;;;;;;;3.58;1.02;;;;;;;6.07;100.00;92636.84;5012505;28;20050;-73
2024/01/03 06:58:51;;;;;;;3.95;1.10;;;;;;;6.11;100.00;92643.75;5011780;28;20053;-73
2024/01/03 07:01:18;;;;;;;3.50;1.23;;;;;;;6.12;100.00;92639.09;5012332;28;20064;-73
2024/01/03 07:03:45;;;;;;;2.92;1.10;;;;;;;6.04;100.00;92626.75;5012503;28;20111;-73
2024/01/03 07:06:12;;;;;;;2.60;0.90;;;;;;;5.99;100.00;92633.47;5011034;28;20044;-72
2024/01/03 07:08:39;;;;;;;3.10;1.00;;;;;;;5.99;100.00;92636.94;5015324;28;20509;-73
2024/01/03 07:11:06;;;;;;;3.30;1.15;;;;;;;6.02;100.00;92634.59;5031519;28;20058;-73
2024/01/03 07:13:32;;;;;;;2.85;1.08;;;;;;;6.00;100.00;92638.50;5031677;28;20064;-73
2024/01/03 07:15:59;;;;;;;5.32;1.08;;;;;;;6.03;100.00;92639.63;5031445;28;20409;-73
2024/01/03 07:18:26;;;;;;;4.50;1.27;;;;;;;6.14;100.00;92634.75;5015155;28;20123;-73
2024/01/03 07:20:53;;;;;;;4.00;1.25;;;;;;;6.16;100.00;92637.81;5011690;28;20483;-72
2024/01/03 07:23:20;;;;;;;2.17;0.90;;;;;;;6.04;100.00;92641.16;5011718;28;20082;-73
2024/01/03 07:25:46;;;;;;;3.13;1.08;;;;;;;6.21;100.00;92650.19;5011889;28;20069;-73
2024/01/03 07:28:14;;;;;;;4.45;1.30;;;;;;;6.20;100.00;92635.03;5008213;28;20382;-73
2024/01/03 07:30:41;;;;;;;4.10;1.10;;;;;;;6.19;100.00;92639.69;5000211;28;20052;-73
2024/01/03 07:33:08;;;;;;;4.57;1.17;;;;;;;6.30;100.00;92638.72;4998140;28;20103;-73
2024/01/03 07:35:36;;;;;;;2.35;1.20;;;;;;;6.32;100.00;92658.16;5000915;28;20037;-72
2024/01/03 07:38:05;;;;;;;4.15;1.20;;;;;;;6.35;100.00;92649.91;4997405;28;20419;-72
2024/01/03 07:40:32;;;;;;;3.67;1.40;;;;;;;6.38;100.00;92659.97;5002155;28;20073;-73
2024/01/03 07:42:59;;;;;;;4.67;1.30;;;;;;;6.15;100.00;92663.50;4996800;28;20057;-72
2024/01/03 07:45:26;;;;;;;3.13;1.00;;;;;;;6.12;100.00;92656.19;5001755;28;20538;-73
2024/01/03 07:47:53;;;;;;;5.03;1.00;;;;;;;6.08;100.00;92650.03;4999062;28;20450;-72
2024/01/03 07:50:19;;;;;;;3.22;1.10;;;;;;;6.00;100.00;92660.28;5000437;28;20103;-73
2024/01/03 07:52:46;;;;;;;3.47;1.50;;;;;;;6.12;100.00;92655.44;4997388;28;20073;-73
2024/01/03 07:55:14;;;;;;;5.40;1.43;;;;;;;6.02;100.00;92656.38;4998213;28;20038;-73
2024/01/03 07:57:41;;;;;;;2.67;1.02;;;;;;;6.22;100.00;92650.94;4999259;28;20049;-72
2024/01/03 08:00:09;;;;;;;4.68;1.00;;;;;;;6.14;100.00;92647.59;4999708;28;20052;-73
2024/01/03 08:02:36;;;;;;;3.17;1.42;;;;;;;6.11;100.00;92640.25;4997636;28;20046;-72
2024/01/03 08:05:03;;;;;;;4.63;1.02;;;;;;;6.18;100.00;92630.00;4998012;28;20410;-72
2024/01/03 08:07:30;;;;;;;4.30;1.00;;;;;;;6.42;100.00;92648.22;4998450;28;20061;-73
2024/01/03 08:09:57;;;;;;;4.13;1.17;;;;;;;6.47;100.00;92645.00;4995773;28;20045;-72
2024/01/03 08:12:23;;;;;;;4.10;1.40;;;;;;;6.62;100.00;92645.47;4998830;28;20045;-72
2024/01/03 08:14:50;;;;;;;3.53;0.93;;;;;;;6.66;100.00;92641.50;4996329;28;20101;-72
2024/01/03 08:17:17;;;;;;;2.92;1.20;;;;;;;6.72;100.00;92639.81;5001286;28;20080;-73
2024/01/03 08:19:43;;;;;;;4.07;1.00;;;;;;;6.66;100.00;92638.00;4996400;28;20135;-73
2024/01/03 08:22:10;;;;;;;2.75;1.23;;;;;;;6.61;100.00;92644.72;4999384;28;20043;-72
2024/01/03 08:24:37;;;;;;;3.40;0.93;;;;;;;6.67;100.00;92653.94;4999625;28;20054;-72
2024/01/03 08:27:04;;;;;;;4.55;1.30;;;;;;;6.88;100.00;92650.00;5000375;28;20049;-73
2024/01/03 08:29:31;;;;;;;5.40;1.48;;;;;;;7.00;100.00;92668.44;4998365;28;20487;-72
2024/01/03 08:31:58;;;;;;;2.90;1.10;;;;;;;7.13;100.00;92640.47;4997824;28;20092;-72
2024/01/03 08:34:25;;;;;;;5.75;1.20;;;;;;;6.98;100.00;92651.72;4997100;28;20388;-72
2024/01/03 08:36:52;;;;;;;2.83;1.20;;;;;;;7.05;100.00;92645.31;4999643;28;20104;-72
2024/01/03 08:39:20;;;;;;;4.47;1.45;;;;;;;7.08;100.00;92635.53;4995584;28;20096;-73
2024/01/03 08:41:47;;;;;;;2.85;1.17;;;;;;;6.94;100.00;92645.56;4997617;28;20042;-72
2024/01/03 08:44:14;;;;;;;4.43;1.20;;;;;;;6.88;100.00;92650.00;4996464;28;21891;-73
2024/01/03 08:46:42;;;;;;;4.07;1.38;;;;;;;6.92;100.00;92667.06;4996197;28;20050;-72
2024/01/03 08:49:09;;;;;;;3.03;1.00;;;;;;;6.94;100.00;92655.69;4997317;28;20123;-73
2024/01/03 08:51:36;;;;;;;3.55;1.20;;;;;;;7.06;100.00;92662.47;4996198;28;20068;-72
2024/01/03 08:54:04;;;;;;;4.38;1.20;;;;;;;7.30;100.00;92665.81;4997824;28;20126;-73
2024/01/03 08:56:31;;;;;;;4.17;1.03;;;;;;;7.26;100.00;92654.22;4996176;28;20423;-73
2024/01/03 08:58:58;;;;;;;3.63;1.20;;;;;;;6.98;100.00;92650.94;4998390;28;20050;-73
2024/01/03 09:01:27;;;;;;;2.45;0.70;;;;;;;6.92;100.00;92645.22;4995115;28;20046;-73
2024/01/03 09:03:54;;;;;;;4.05;0.93;;;;;;;6.89;100.00;92662.44;4997537;28;20123;-73
2024/01/03 09:06:22;;;;;;;2.78;0.95;;;;;;;6.90;100.00;92652.28;4999414;28;20046;-71
2024/01/03 09:08:54;;;;;;;3.53;1.20;;;;;;;6.92;100.00;92658.88;4996556;28;20060;-71
2024/01/03 09:11:26;;;;;;;3.72;1.40;;;;;;;6.98;100.00;92657.19;5000468;28;20398;-73
2024/01/03 09:13:53;;;;;;;3.00;1.13;;;;;;;6.96;100.00;92665.00;4998703;28;20050;-72
2024/01/03 09:16:26;;;;;;;2.95;1.10;;;;;;;6.97;100.00;92661.06;5000139;28;20538;-72
2024/01/03 09:18:53;;;;;;;3.47;1.20;;;;;;;7.19;100.00;92676.97;4995311;28;20046;-72
2024/01/03 09:21:21;;;;;;;5.43;1.60;;;;;;;8.66;100.00;92664.34;4997459;28;20030;-73
2024/01/03 09:23:49;;;;;;;4.63;1.42;;;;;;;11.09;100.00;92666.66;4999476;28;20055;-71
2024/01/03 09:26:19;;;;;;;5.32;1.13;;;;;;;9.39;100.00;92673.50;4995741;28;20633;-71
2024/01/03 09:28:47;;;;;;;3.00;0.90;;;;;;;9.62;100.00;92674.41;4998033;28;20491;-72
2024/01/03 09:31:14;;;;;;;4.45;1.17;;;;;;;8.71;100.00;92678.28;4994850;28;20038;-72
2024/01/03 09:33:41;;;;;;;5.93;1.50;;;;;;;8.31;100.00;92664.09;4998055;28;20046;-72
2024/01/03 09:36:21;;;;;;;4.53;1.48;;;;;;;8.05;100.00;92674.94;4994737;28;20052;-72
2024/01/03 09:38:54;;;;;;;4.18;1.23;;;;;;;7.84;100.00;92668.03;4995368;28;20050;-72
2024/01/03 09:41:22;;;;;;;4.03;1.50;;;;;;;7.77;100.00;92681.88;4997194;28;20034;-72
2024/01/03 09:43:52;;;;;;;4.78;1.67;;;;;;;7.67;100.00;92680.94;4995417;28;20491;-72
2024/01/03 09:46:20;;;;;;;3.53;1.03;;;;;;;7.58;100.00;92694.41;4998968;28;21715;-71
2024/01/03 09:48:48;;;;;;;4.97;1.10;;;;;;;7.64;100.00;92694.66;4995524;28;20054;-72
2024/01/03 09:51:19;;;;;;;4.68;0.95;;;;;;;7.66;100.00;92703.97;4999532;28;21708;-72
2024/01/03 09:53:47;;;;;;;2.40;1.10;;;;;;;7.79;100.00;92672.06;4994305;28;20392;-72
2024/01/03 09:56:14;;;;;;;3.05;1.25;;;;;;;7.76;100.00;92691.25;4994731;28;20046;-72
2024/01/03 09:58:41;;;;;;;4.17;1.33;;;;;;;7.93;100.00;92698.25;4997090;28;20545;-72
2024/01/03 10:01:08;;;;;;;3.45;1.13;;;;;;;8.36;100.00;92688.94;4995429;28;20050;-72
2024/01/03 10:03:35;;;;;;;5.07;1.30;;;;;;;8.25;100.00;92715.81;4995589;28;20564;-72
2024/01/03 10:06:05;;;;;;;4.20;0.90;;;;;;;8.40;100.00;92710.72;4994973;28;20046;-72
2024/01/03 10:08:34;;;;;;;4.13;1.08;;;;;;;8.51;100.00;92715.91;4997697;28;20050;-72
2024/01/03 10:11:01;;;;;;;4.80;1.20;;;;;;;8.34;100.00;92699.53;4994819;28;20042;-72
2024/01/03 10:13:28;;;;;;;3.20;1.00;;;;;;;7.86;100.00;92716.78;4999114;28;20049;-72
2024/01/03 10:16:02;;;;;;;3.53;1.30;;;;;;;7.82;100.00;92729.75;4994542;28;20039;-72
2024/01/03 10:18:29;;;;;;;2.50;0.85;;;;;;;7.74;100.00;92735.38;4998349;28;20394;-72
2024/01/03 10:21:11;;;;;;;5.03;1.20;;;;;;;7.46;100.00;92720.41;4995612;28;20057;-72
2024/01/03 10:23:38;;;;;;;3.53;1.70;;;;;;;7.10;100.00;92720.44;4998691;28;20156;-72
2024/01/03 10:26:05;;;;;;;5.13;1.45;;;;;;;7.01;100.00;92753.75;4995135;28;20037;-72
2024/01/03 10:28:31;;;;;;;4.20;1.20;;;;;;;6.98;100.00;92732.75;4994597;28;20038;-72
2024/01/03 10:30:59;;;;;;;4.93;1.30;;;;;;;6.93;100.00;92716.91;4996216;28;20037;-72
2024/01/03 10:33:26;;;;;;;5.47;1.35;;;;;;;6.98;100.00;92721.84;4995443;28;20053;-71
2024/01/03 10:35:53;;;;;;;3.37;1.17;;;;;;;6.98;100.00;92721.84;4995385;28;20054;-71
2024/01/03 10:38:22;;;;;;;4.18;1.20;;;;;;;7.07;100.00;92710.38;4995248;28;20051;-71
2024/01/03 10:40:50;;;;;;;3.53;1.25;;;;;;;7.08;100.00;92699.03;4982402;28;20054;-69
2024/01/03 10:43:17;;;;;;;3.28;1.00;;;;;;;7.17;100.00;92696.50;5001070;28;20046;-72
2024/01/03 10:45:44;;;;;;;4.53;1.35;;;;;;;7.03;100.00;92706.97;4999351;28;20060;-71
2024/01/03 10:48:10;;;;;;;3.00;1.20;;;;;;;7.10;100.00;92696.66;4998214;28;20043;-70
2024/01/03 10:50:42;;;;;;;4.00;1.15;;;;;;;8.02;100.00;92703.09;4994360;28;20061;-72
2024/01/03 10:53:09;;;;;;;4.40;1.25;;;;;;;8.29;100.00;92691.09;4998207;28;20060;-72
2024/01/03 10:55:39;;;;;;;3.90;1.20;;;;;;;7.81;100.00;92688.03;4995121;28;20048;-73
2024/01/03 10:58:13;;;;;;;3.58;1.05;;;;;;;7.59;100.00;92680.34;4997779;28;20048;-72
2024/01/03 11:00:57;;;;;;;4.93;1.30;;;;;;;7.73;100.00;92678.47;4996380;28;20061;-72
2024/01/03 11:03:34;;;;;;;3.38;0.80;;;;;;;7.72;100.00;92685.09;4993965;28;22319;-71
2024/01/03 11:06:23;;;;;;;4.10;1.40;;;;;;;8.02;100.00;92697.63;4996465;28;20435;-72
2024/01/03 11:08:55;;;;;;;3.80;0.90;;;;;;;8.46;100.00;92686.38;4996153;28;20054;-72
2024/01/03 11:11:30;;;;;;;3.38;1.35;;;;;;;9.28;100.00;92680.53;5002164;28;20057;-72
2024/01/03 11:13:57;;;;;;;3.37;1.20;;;;;;;8.89;100.00;92685.19;5004605;28;20388;-72
2024/01/03 11:16:35;;;;;;;3.53;1.10;;;;;;;8.71;100.00;92691.94;5000837;28;20048;-72
2024/01/03 11:19:02;;;;;;;2.65;1.30;;;;;;;8.68;100.00;92683.84;5000391;28;20056;-72
2024/01/03 11:21:34;;;;;;;4.53;1.10;;;;;;;8.39;100.00;92682.63;5001708;28;20045;-72
2024/01/03 11:24:02;;;;;;;5.70;1.17;;;;;;;8.14;100.00;92679.78;5001387;28;20483;-72
2024/01/03 11:26:54;;;;;;;3.27;1.00;;;;;;;7.75;100.00;92681.53;5000333;28;20050;-73
2024/01/03 11:29:43;;;;;;;4.40;1.20;;;;;;;7.50;100.00;92669.22;4997508;28;21545;-72
2024/01/03 11:32:12;;;;;;;3.10;1.15;;;;;;;7.38;100.00;92689.81;4999416;28;20127;-72
2024/01/03 11:34:45;;;;;;;3.00;1.30;;;;;;;7.31;100.00;92681.00;4998553;28;20062;-72
2024/01/03 11:37:18;;;;;;;4.25;1.20;;;;;;;7.34;100.00;92691.81;4999802;28;20046;-72